sensor_id;sensor_type;location;lat;lon;timestamp;P1;durP1;ratioP1;P2;durP2;ratioP2
74749;SDS011;63269;53.330;-6.288;2023-06-26T00:01:30;3.65;;;1.40;;
74749;SDS011;63269;53.330;-6.288;2023-06-26T00:03:59;3.40;;;1.13;;
74749;SDS011;63269;53.330;-6.288;2023-06-26T00:06:25;3.95;;;1.38;;
74749;SDS011;63269;53.330;-6.288;2023-06-26T00:08:51;3.28;;;1.30;;
74749;SDS011;63269;53.330;-6.288;2023-06-26T00:11:18;3.88;;;1.30;;
74749;SDS011;63269;53.330;-6.288;2023-06-26T00:13:44;3.58;;;1.30;;
74749;SDS011;63269;53.330;-6.288;2023-06-26T00:16:09;4.05;;;1.30;;
74749;SDS011;63269;53.330;-6.288;2023-06-26T00:18:35;3.70;;;1.40;;
74749;SDS011;63269;53.330;-6.288;2023-06-26T00:21:00;3.10;;;1.20;;
74749;SDS011;63269;53.330;-6.288;2023-06-26T00:23:26;4.43;;;1.25;;
74749;SDS011;63269;53.330;-6.288;2023-06-26T00:25:52;3.42;;;1.02;;
74749;SDS011;63269;53.330;-6.288;2023-06-26T00:28:18;3.08;;;1.50;;
74749;SDS011;63269;53.330;-6.288;2023-06-26T00:30:43;3.65;;;1.80;;
74749;SDS011;63269;53.330;-6.288;2023-06-26T00:33:09;2.92;;;1.25;;
74749;SDS011;63269;53.330;-6.288;2023-06-26T00:35:34;4.43;;;1.23;;
74749;SDS011;63269;53.330;-6.288;2023-06-26T00:38:00;5.38;;;1.50;;
74749;SDS011;63269;53.330;-6.288;2023-06-26T00:40:26;4.82;;;1.40;;
74749;SDS011;63269;53.330;-6.288;2023-06-26T00:42:52;3.58;;;1.25;;
74749;SDS011;63269;53.330;-6.288;2023-06-26T00:45:18;3.00;;;1.58;;
74749;SDS011;63269;53.330;-6.288;2023-06-26T00:47:43;6.15;;;1.50;;
74749;SDS011;63269;53.330;-6.288;2023-06-26T00:50:09;4.40;;;1.60;;
74749;SDS011;63269;53.330;-6.288;2023-06-26T00:52:35;5.85;;;1.52;;
74749;SDS011;63269;53.330;-6.288;2023-06-26T00:55:01;4.95;;;2.10;;
74749;SDS011;63269;53.330;-6.288;2023-06-26T00:57:27;3.13;;;1.60;;
74749;SDS011;63269;53.330;-6.288;2023-06-26T00:59:52;4.90;;;1.38;;
74749;SDS011;63269;53.330;-6.288;2023-06-26T01:02:18;4.53;;;1.42;;
74749;SDS011;63269;53.330;-6.288;2023-06-26T01:04:54;4.82;;;1.85;;
74749;SDS011;63269;53.330;-6.288;2023-06-26T01:07:19;4.50;;;1.30;;
74749;SDS011;63269;53.330;-6.288;2023-06-26T01:09:46;3.05;;;1.38;;
74749;SDS011;63269;53.330;-6.288;2023-06-26T01:12:13;3.30;;;1.38;;
74749;SDS011;63269;53.330;-6.288;2023-06-26T01:14:39;4.30;;;1.98;;
74749;SDS011;63269;53.330;-6.288;2023-06-26T01:17:04;3.53;;;1.35;;
74749;SDS011;63269;53.330;-6.288;2023-06-26T01:19:31;2.88;;;1.33;;
74749;SDS011;63269;53.330;-6.288;2023-06-26T01:28:03;4.60;;;1.38;;
74749;SDS011;63269;53.330;-6.288;2023-06-26T01:30:31;3.00;;;1.20;;
74749;SDS011;63269;53.330;-6.288;2023-06-26T01:32:57;5.32;;;1.20;;
74749;SDS011;63269;53.330;-6.288;2023-06-26T01:35:24;4.22;;;1.40;;
74749;SDS011;63269;53.330;-6.288;2023-06-26T01:37:50;4.22;;;1.52;;
74749;SDS011;63269;53.330;-6.288;2023-06-26T01:40:15;4.97;;;1.42;;
74749;SDS011;63269;53.330;-6.288;2023-06-26T01:42:41;4.85;;;1.20;;
74749;SDS011;63269;53.330;-6.288;2023-06-26T01:45:20;3.88;;;1.50;;
74749;SDS011;63269;53.330;-6.288;2023-06-26T01:47:51;4.22;;;1.35;;
74749;SDS011;63269;53.330;-6.288;2023-06-26T01:50:28;2.95;;;1.42;;
74749;SDS011;63269;53.330;-6.288;2023-06-26T01:53:04;5.78;;;1.30;;
74749;SDS011;63269;53.330;-6.288;2023-06-26T01:58:24;5.28;;;1.50;;
74749;SDS011;63269;53.330;-6.288;2023-06-26T02:00:50;2.72;;;1.35;;
74749;SDS011;63269;53.330;-6.288;2023-06-26T02:03:16;2.95;;;1.40;;
74749;SDS011;63269;53.330;-6.288;2023-06-26T02:05:41;5.07;;;1.30;;
74749;SDS011;63269;53.330;-6.288;2023-06-26T02:08:08;4.55;;;1.20;;
74749;SDS011;63269;53.330;-6.288;2023-06-26T02:10:33;2.40;;;1.20;;
74749;SDS011;63269;53.330;-6.288;2023-06-26T02:12:59;4.35;;;1.30;;
74749;SDS011;63269;53.330;-6.288;2023-06-26T02:15:25;4.22;;;1.33;;
74749;SDS011;63269;53.330;-6.288;2023-06-26T02:17:51;5.28;;;1.33;;
74749;SDS011;63269;53.330;-6.288;2023-06-26T02:20:16;3.80;;;1.20;;
74749;SDS011;63269;53.330;-6.288;2023-06-26T02:22:42;3.70;;;1.30;;
74749;SDS011;63269;53.330;-6.288;2023-06-26T02:25:08;3.85;;;1.30;;
74749;SDS011;63269;53.330;-6.288;2023-06-26T02:27:34;3.15;;;1.55;;
74749;SDS011;63269;53.330;-6.288;2023-06-26T02:29:59;3.85;;;1.25;;
74749;SDS011;63269;53.330;-6.288;2023-06-26T02:32:25;5.10;;;1.50;;
74749;SDS011;63269;53.330;-6.288;2023-06-26T02:34:50;4.20;;;1.40;;
74749;SDS011;63269;53.330;-6.288;2023-06-26T02:37:19;4.10;;;1.27;;
74749;SDS011;63269;53.330;-6.288;2023-06-26T02:39:44;6.88;;;1.50;;
74749;SDS011;63269;53.330;-6.288;2023-06-26T02:42:10;2.97;;;1.90;;
74749;SDS011;63269;53.330;-6.288;2023-06-26T02:44:35;3.60;;;1.50;;
74749;SDS011;63269;53.330;-6.288;2023-06-26T02:47:01;3.28;;;1.10;;
74749;SDS011;63269;53.330;-6.288;2023-06-26T02:49:26;4.13;;;1.38;;
74749;SDS011;63269;53.330;-6.288;2023-06-26T02:51:52;4.97;;;1.33;;
74749;SDS011;63269;53.330;-6.288;2023-06-26T02:54:17;3.53;;;1.67;;
74749;SDS011;63269;53.330;-6.288;2023-06-26T02:56:43;3.85;;;1.45;;
74749;SDS011;63269;53.330;-6.288;2023-06-26T02:59:08;3.50;;;1.58;;
74749;SDS011;63269;53.330;-6.288;2023-06-26T03:01:33;5.80;;;1.50;;
74749;SDS011;63269;53.330;-6.288;2023-06-26T03:03:59;2.85;;;1.40;;
74749;SDS011;63269;53.330;-6.288;2023-06-26T03:06:26;4.18;;;1.45;;
74749;SDS011;63269;53.330;-6.288;2023-06-26T03:08:52;4.82;;;1.38;;
74749;SDS011;63269;53.330;-6.288;2023-06-26T03:11:18;3.90;;;1.40;;
74749;SDS011;63269;53.330;-6.288;2023-06-26T03:13:43;4.70;;;1.42;;
74749;SDS011;63269;53.330;-6.288;2023-06-26T03:16:08;3.47;;;1.35;;
74749;SDS011;63269;53.330;-6.288;2023-06-26T03:18:34;2.97;;;1.27;;
74749;SDS011;63269;53.330;-6.288;2023-06-26T03:20:59;2.85;;;1.00;;
74749;SDS011;63269;53.330;-6.288;2023-06-26T03:23:25;3.85;;;1.02;;
74749;SDS011;63269;53.330;-6.288;2023-06-26T03:25:50;4.78;;;2.05;;
74749;SDS011;63269;53.330;-6.288;2023-06-26T03:28:16;4.55;;;1.48;;
74749;SDS011;63269;53.330;-6.288;2023-06-26T03:30:42;3.80;;;1.08;;
74749;SDS011;63269;53.330;-6.288;2023-06-26T03:33:07;3.42;;;1.00;;
74749;SDS011;63269;53.330;-6.288;2023-06-26T03:35:33;3.08;;;1.10;;
74749;SDS011;63269;53.330;-6.288;2023-06-26T03:37:59;4.72;;;2.08;;
74749;SDS011;63269;53.330;-6.288;2023-06-26T03:40:25;4.07;;;1.30;;
74749;SDS011;63269;53.330;-6.288;2023-06-26T03:42:51;5.43;;;1.50;;
74749;SDS011;63269;53.330;-6.288;2023-06-26T03:45:16;4.10;;;1.38;;
74749;SDS011;63269;53.330;-6.288;2023-06-26T03:47:42;3.45;;;1.15;;
74749;SDS011;63269;53.330;-6.288;2023-06-26T03:50:08;4.13;;;1.10;;
74749;SDS011;63269;53.330;-6.288;2023-06-26T03:52:34;4.03;;;1.45;;
74749;SDS011;63269;53.330;-6.288;2023-06-26T03:54:59;5.43;;;1.55;;
74749;SDS011;63269;53.330;-6.288;2023-06-26T03:57:24;3.63;;;1.70;;
74749;SDS011;63269;53.330;-6.288;2023-06-26T03:59:50;4.55;;;1.25;;
74749;SDS011;63269;53.330;-6.288;2023-06-26T04:02:16;3.25;;;1.40;;
74749;SDS011;63269;53.330;-6.288;2023-06-26T04:04:42;3.53;;;1.50;;
74749;SDS011;63269;53.330;-6.288;2023-06-26T04:07:07;4.30;;;1.20;;
74749;SDS011;63269;53.330;-6.288;2023-06-26T04:09:32;5.40;;;1.20;;
74749;SDS011;63269;53.330;-6.288;2023-06-26T04:11:58;5.22;;;1.40;;
74749;SDS011;63269;53.330;-6.288;2023-06-26T04:14:23;5.00;;;1.50;;
74749;SDS011;63269;53.330;-6.288;2023-06-26T04:16:49;4.72;;;1.55;;
74749;SDS011;63269;53.330;-6.288;2023-06-26T04:19:14;4.80;;;1.17;;
74749;SDS011;63269;53.330;-6.288;2023-06-26T04:21:40;4.18;;;0.95;;
74749;SDS011;63269;53.330;-6.288;2023-06-26T04:24:05;2.85;;;1.10;;
74749;SDS011;63269;53.330;-6.288;2023-06-26T04:26:31;5.00;;;1.20;;
74749;SDS011;63269;53.330;-6.288;2023-06-26T04:28:56;4.20;;;1.30;;
74749;SDS011;63269;53.330;-6.288;2023-06-26T04:31:22;2.78;;;1.25;;
74749;SDS011;63269;53.330;-6.288;2023-06-26T04:33:47;3.20;;;0.95;;
74749;SDS011;63269;53.330;-6.288;2023-06-26T04:36:19;4.53;;;1.50;;
74749;SDS011;63269;53.330;-6.288;2023-06-26T04:38:44;6.03;;;1.33;;
74749;SDS011;63269;53.330;-6.288;2023-06-26T04:41:09;3.83;;;1.48;;
74749;SDS011;63269;53.330;-6.288;2023-06-26T04:43:35;3.50;;;0.98;;
74749;SDS011;63269;53.330;-6.288;2023-06-26T04:46:02;2.53;;;1.10;;
74749;SDS011;63269;53.330;-6.288;2023-06-26T04:48:27;4.07;;;1.42;;
74749;SDS011;63269;53.330;-6.288;2023-06-26T04:50:54;3.58;;;1.25;;
74749;SDS011;63269;53.330;-6.288;2023-06-26T04:53:21;3.92;;;1.50;;
74749;SDS011;63269;53.330;-6.288;2023-06-26T04:55:47;4.20;;;1.60;;
74749;SDS011;63269;53.330;-6.288;2023-06-26T04:58:12;6.63;;;1.30;;
74749;SDS011;63269;53.330;-6.288;2023-06-26T05:00:38;3.67;;;1.30;;
74749;SDS011;63269;53.330;-6.288;2023-06-26T05:03:03;3.33;;;1.20;;
74749;SDS011;63269;53.330;-6.288;2023-06-26T05:05:28;3.97;;;1.05;;
74749;SDS011;63269;53.330;-6.288;2023-06-26T05:07:54;4.13;;;1.27;;
74749;SDS011;63269;53.330;-6.288;2023-06-26T05:10:21;3.10;;;1.67;;
74749;SDS011;63269;53.330;-6.288;2023-06-26T05:12:46;3.67;;;1.45;;
74749;SDS011;63269;53.330;-6.288;2023-06-26T05:15:12;3.85;;;1.15;;
74749;SDS011;63269;53.330;-6.288;2023-06-26T05:17:37;3.28;;;1.23;;
74749;SDS011;63269;53.330;-6.288;2023-06-26T05:20:03;4.03;;;1.33;;
74749;SDS011;63269;53.330;-6.288;2023-06-26T05:22:30;5.28;;;1.20;;
74749;SDS011;63269;53.330;-6.288;2023-06-26T05:24:58;3.92;;;1.10;;
74749;SDS011;63269;53.330;-6.288;2023-06-26T05:27:25;3.97;;;1.40;;
74749;SDS011;63269;53.330;-6.288;2023-06-26T05:29:51;5.13;;;1.15;;
74749;SDS011;63269;53.330;-6.288;2023-06-26T05:32:17;4.65;;;1.27;;
74749;SDS011;63269;53.330;-6.288;2023-06-26T05:34:47;4.20;;;1.20;;
74749;SDS011;63269;53.330;-6.288;2023-06-26T05:37:19;3.40;;;0.93;;
74749;SDS011;63269;53.330;-6.288;2023-06-26T05:39:46;2.90;;;1.05;;
74749;SDS011;63269;53.330;-6.288;2023-06-26T05:42:12;4.82;;;1.60;;
74749;SDS011;63269;53.330;-6.288;2023-06-26T05:44:38;4.40;;;1.20;;
74749;SDS011;63269;53.330;-6.288;2023-06-26T05:47:04;6.85;;;1.50;;
74749;SDS011;63269;53.330;-6.288;2023-06-26T05:49:30;3.05;;;1.17;;
74749;SDS011;63269;53.330;-6.288;2023-06-26T05:51:55;3.60;;;0.93;;
74749;SDS011;63269;53.330;-6.288;2023-06-26T05:54:21;2.80;;;1.13;;
74749;SDS011;63269;53.330;-6.288;2023-06-26T05:56:47;4.60;;;1.08;;
74749;SDS011;63269;53.330;-6.288;2023-06-26T05:59:14;4.13;;;1.23;;
74749;SDS011;63269;53.330;-6.288;2023-06-26T06:01:40;4.45;;;1.50;;
74749;SDS011;63269;53.330;-6.288;2023-06-26T06:04:06;4.18;;;1.10;;
74749;SDS011;63269;53.330;-6.288;2023-06-26T06:06:31;3.00;;;1.30;;
74749;SDS011;63269;53.330;-6.288;2023-06-26T06:08:56;3.45;;;1.13;;
74749;SDS011;63269;53.330;-6.288;2023-06-26T06:11:22;5.95;;;1.52;;
74749;SDS011;63269;53.330;-6.288;2023-06-26T06:13:47;3.85;;;1.15;;
74749;SDS011;63269;53.330;-6.288;2023-06-26T06:16:13;5.20;;;1.10;;
74749;SDS011;63269;53.330;-6.288;2023-06-26T06:18:38;7.15;;;1.58;;
74749;SDS011;63269;53.330;-6.288;2023-06-26T06:21:04;4.55;;;1.20;;
74749;SDS011;63269;53.330;-6.288;2023-06-26T06:23:29;5.28;;;1.50;;
74749;SDS011;63269;53.330;-6.288;2023-06-26T06:25:55;5.82;;;1.55;;
74749;SDS011;63269;53.330;-6.288;2023-06-26T06:28:20;5.45;;;2.08;;
74749;SDS011;63269;53.330;-6.288;2023-06-26T06:30:46;3.42;;;1.13;;
74749;SDS011;63269;53.330;-6.288;2023-06-26T06:33:13;4.47;;;1.27;;
74749;SDS011;63269;53.330;-6.288;2023-06-26T06:35:38;5.20;;;1.50;;
74749;SDS011;63269;53.330;-6.288;2023-06-26T06:38:04;2.25;;;1.02;;
74749;SDS011;63269;53.330;-6.288;2023-06-26T06:40:29;3.80;;;1.52;;
74749;SDS011;63269;53.330;-6.288;2023-06-26T06:42:55;4.53;;;1.48;;
74749;SDS011;63269;53.330;-6.288;2023-06-26T06:45:20;4.40;;;1.52;;
74749;SDS011;63269;53.330;-6.288;2023-06-26T06:47:46;4.18;;;1.30;;
74749;SDS011;63269;53.330;-6.288;2023-06-26T06:50:11;4.88;;;1.10;;
74749;SDS011;63269;53.330;-6.288;2023-06-26T06:52:37;5.50;;;1.50;;
74749;SDS011;63269;53.330;-6.288;2023-06-26T06:55:05;6.35;;;1.63;;
74749;SDS011;63269;53.330;-6.288;2023-06-26T06:57:33;5.95;;;1.10;;
74749;SDS011;63269;53.330;-6.288;2023-06-26T07:00:05;10.40;;;2.77;;
74749;SDS011;63269;53.330;-6.288;2023-06-26T07:02:36;5.07;;;1.15;;
74749;SDS011;63269;53.330;-6.288;2023-06-26T07:05:07;3.70;;;1.25;;
74749;SDS011;63269;53.330;-6.288;2023-06-26T07:07:34;3.97;;;1.42;;
74749;SDS011;63269;53.330;-6.288;2023-06-26T07:10:01;4.55;;;1.67;;
74749;SDS011;63269;53.330;-6.288;2023-06-26T07:12:29;6.47;;;1.40;;
74749;SDS011;63269;53.330;-6.288;2023-06-26T07:14:55;4.10;;;1.55;;
74749;SDS011;63269;53.330;-6.288;2023-06-26T07:17:21;12.68;;;2.30;;
74749;SDS011;63269;53.330;-6.288;2023-06-26T07:19:46;9.15;;;2.38;;
74749;SDS011;63269;53.330;-6.288;2023-06-26T07:22:12;6.78;;;1.70;;
74749;SDS011;63269;53.330;-6.288;2023-06-26T07:24:37;9.63;;;1.88;;
74749;SDS011;63269;53.330;-6.288;2023-06-26T07:27:03;6.88;;;2.05;;
74749;SDS011;63269;53.330;-6.288;2023-06-26T07:29:29;8.18;;;2.13;;
74749;SDS011;63269;53.330;-6.288;2023-06-26T07:31:54;6.68;;;2.00;;
74749;SDS011;63269;53.330;-6.288;2023-06-26T07:34:19;7.00;;;2.35;;
74749;SDS011;63269;53.330;-6.288;2023-06-26T07:36:45;9.63;;;1.88;;
74749;SDS011;63269;53.330;-6.288;2023-06-26T07:39:10;7.95;;;1.42;;
74749;SDS011;63269;53.330;-6.288;2023-06-26T07:41:36;8.23;;;1.80;;
74749;SDS011;63269;53.330;-6.288;2023-06-26T07:44:01;7.72;;;1.63;;
74749;SDS011;63269;53.330;-6.288;2023-06-26T07:46:27;7.10;;;1.58;;
74749;SDS011;63269;53.330;-6.288;2023-06-26T07:48:52;7.63;;;1.67;;
74749;SDS011;63269;53.330;-6.288;2023-06-26T07:51:18;9.10;;;2.03;;
74749;SDS011;63269;53.330;-6.288;2023-06-26T07:53:43;7.65;;;1.77;;
74749;SDS011;63269;53.330;-6.288;2023-06-26T07:56:09;5.20;;;2.03;;
74749;SDS011;63269;53.330;-6.288;2023-06-26T07:58:34;7.60;;;1.85;;
74749;SDS011;63269;53.330;-6.288;2023-06-26T08:00:59;6.03;;;1.42;;
74749;SDS011;63269;53.330;-6.288;2023-06-26T08:03:25;7.40;;;1.52;;
74749;SDS011;63269;53.330;-6.288;2023-06-26T08:05:50;5.70;;;1.92;;
74749;SDS011;63269;53.330;-6.288;2023-06-26T08:08:16;4.85;;;1.60;;
74749;SDS011;63269;53.330;-6.288;2023-06-26T08:10:41;5.15;;;1.65;;
74749;SDS011;63269;53.330;-6.288;2023-06-26T08:13:06;6.22;;;1.65;;
74749;SDS011;63269;53.330;-6.288;2023-06-26T08:15:32;4.88;;;1.42;;
74749;SDS011;63269;53.330;-6.288;2023-06-26T08:17:57;4.60;;;1.48;;
74749;SDS011;63269;53.330;-6.288;2023-06-26T08:20:22;12.23;;;2.42;;
74749;SDS011;63269;53.330;-6.288;2023-06-26T08:22:48;9.20;;;2.42;;
74749;SDS011;63269;53.330;-6.288;2023-06-26T08:25:16;18.48;;;3.03;;
74749;SDS011;63269;53.330;-6.288;2023-06-26T08:27:42;8.05;;;2.00;;
74749;SDS011;63269;53.330;-6.288;2023-06-26T08:30:08;14.57;;;3.03;;
74749;SDS011;63269;53.330;-6.288;2023-06-26T08:32:33;14.30;;;3.10;;
74749;SDS011;63269;53.330;-6.288;2023-06-26T08:34:59;15.48;;;3.80;;
74749;SDS011;63269;53.330;-6.288;2023-06-26T08:37:24;10.82;;;2.88;;
74749;SDS011;63269;53.330;-6.288;2023-06-26T08:39:50;10.40;;;3.00;;
74749;SDS011;63269;53.330;-6.288;2023-06-26T08:42:15;14.85;;;3.45;;
74749;SDS011;63269;53.330;-6.288;2023-06-26T08:44:41;17.27;;;3.55;;
74749;SDS011;63269;53.330;-6.288;2023-06-26T08:47:07;13.88;;;4.22;;
74749;SDS011;63269;53.330;-6.288;2023-06-26T08:52:24;11.70;;;4.20;;
74749;SDS011;63269;53.330;-6.288;2023-06-26T08:54:56;12.13;;;4.05;;
74749;SDS011;63269;53.330;-6.288;2023-06-26T08:57:23;13.23;;;3.75;;
74749;SDS011;63269;53.330;-6.288;2023-06-26T08:59:51;13.38;;;4.38;;
74749;SDS011;63269;53.330;-6.288;2023-06-26T09:02:17;17.98;;;4.63;;
74749;SDS011;63269;53.330;-6.288;2023-06-26T09:04:42;18.45;;;4.35;;
74749;SDS011;63269;53.330;-6.288;2023-06-26T09:07:08;14.85;;;4.72;;
74749;SDS011;63269;53.330;-6.288;2023-06-26T09:09:34;18.10;;;5.07;;
74749;SDS011;63269;53.330;-6.288;2023-06-26T09:12:01;15.55;;;4.43;;
74749;SDS011;63269;53.330;-6.288;2023-06-26T09:14:27;16.65;;;5.13;;
74749;SDS011;63269;53.330;-6.288;2023-06-26T09:16:54;13.73;;;4.38;;
74749;SDS011;63269;53.330;-6.288;2023-06-26T09:19:19;12.35;;;4.20;;
74749;SDS011;63269;53.330;-6.288;2023-06-26T09:21:45;12.50;;;4.28;;
74749;SDS011;63269;53.330;-6.288;2023-06-26T09:24:14;13.82;;;4.75;;
74749;SDS011;63269;53.330;-6.288;2023-06-26T09:26:40;14.68;;;4.63;;
74749;SDS011;63269;53.330;-6.288;2023-06-26T09:29:05;15.57;;;4.72;;
74749;SDS011;63269;53.330;-6.288;2023-06-26T09:31:36;19.80;;;4.95;;
74749;SDS011;63269;53.330;-6.288;2023-06-26T09:34:02;10.85;;;4.03;;
74749;SDS011;63269;53.330;-6.288;2023-06-26T09:36:29;11.77;;;3.65;;
74749;SDS011;63269;53.330;-6.288;2023-06-26T09:39:01;12.02;;;4.50;;
74749;SDS011;63269;53.330;-6.288;2023-06-26T09:41:27;8.48;;;3.40;;
74749;SDS011;63269;53.330;-6.288;2023-06-26T09:43:53;18.63;;;4.88;;
74749;SDS011;63269;53.330;-6.288;2023-06-26T09:46:26;14.80;;;4.65;;
74749;SDS011;63269;53.330;-6.288;2023-06-26T09:49:05;9.90;;;3.95;;
74749;SDS011;63269;53.330;-6.288;2023-06-26T09:51:37;14.13;;;3.40;;
74749;SDS011;63269;53.330;-6.288;2023-06-26T09:54:04;12.65;;;4.15;;
74749;SDS011;63269;53.330;-6.288;2023-06-26T09:56:31;11.57;;;3.47;;
74749;SDS011;63269;53.330;-6.288;2023-06-26T09:58:58;9.27;;;3.45;;
74749;SDS011;63269;53.330;-6.288;2023-06-26T10:01:26;11.13;;;3.40;;
74749;SDS011;63269;53.330;-6.288;2023-06-26T10:03:56;15.27;;;4.13;;
74749;SDS011;63269;53.330;-6.288;2023-06-26T10:06:27;9.38;;;3.50;;
74749;SDS011;63269;53.330;-6.288;2023-06-26T10:09:00;10.15;;;3.38;;
74749;SDS011;63269;53.330;-6.288;2023-06-26T10:11:29;10.95;;;3.30;;
74749;SDS011;63269;53.330;-6.288;2023-06-26T10:14:01;8.40;;;2.92;;
74749;SDS011;63269;53.330;-6.288;2023-06-26T10:16:29;12.90;;;3.42;;
74749;SDS011;63269;53.330;-6.288;2023-06-26T10:18:58;11.82;;;3.20;;
74749;SDS011;63269;53.330;-6.288;2023-06-26T10:21:27;12.90;;;4.28;;
74749;SDS011;63269;53.330;-6.288;2023-06-26T10:23:55;7.65;;;2.50;;
74749;SDS011;63269;53.330;-6.288;2023-06-26T10:26:21;9.18;;;3.33;;
74749;SDS011;63269;53.330;-6.288;2023-06-26T10:28:49;10.80;;;3.33;;
74749;SDS011;63269;53.330;-6.288;2023-06-26T10:31:21;10.00;;;3.55;;
74749;SDS011;63269;53.330;-6.288;2023-06-26T10:33:49;7.70;;;2.40;;
74749;SDS011;63269;53.330;-6.288;2023-06-26T10:36:19;8.02;;;2.55;;
74749;SDS011;63269;53.330;-6.288;2023-06-26T10:38:52;8.77;;;2.80;;
74749;SDS011;63269;53.330;-6.288;2023-06-26T10:41:23;12.80;;;3.10;;
74749;SDS011;63269;53.330;-6.288;2023-06-26T10:46:24;10.10;;;2.88;;
74749;SDS011;63269;53.330;-6.288;2023-06-26T10:48:56;6.82;;;2.97;;
74749;SDS011;63269;53.330;-6.288;2023-06-26T10:51:25;9.65;;;2.75;;
74749;SDS011;63269;53.330;-6.288;2023-06-26T10:53:55;9.63;;;2.65;;
74749;SDS011;63269;53.330;-6.288;2023-06-26T10:58:47;6.45;;;2.67;;
74749;SDS011;63269;53.330;-6.288;2023-06-26T11:01:25;7.88;;;2.75;;
74749;SDS011;63269;53.330;-6.288;2023-06-26T11:06:32;6.00;;;2.08;;
74749;SDS011;63269;53.330;-6.288;2023-06-26T11:14:30;5.80;;;2.30;;
74749;SDS011;63269;53.330;-6.288;2023-06-26T11:16:56;5.00;;;2.13;;
74749;SDS011;63269;53.330;-6.288;2023-06-26T11:19:22;8.93;;;2.53;;
74749;SDS011;63269;53.330;-6.288;2023-06-26T11:21:51;5.07;;;2.42;;
74749;SDS011;63269;53.330;-6.288;2023-06-26T11:24:17;6.25;;;2.20;;
74749;SDS011;63269;53.330;-6.288;2023-06-26T11:26:44;5.70;;;2.20;;
74749;SDS011;63269;53.330;-6.288;2023-06-26T11:29:10;5.38;;;2.08;;
74749;SDS011;63269;53.330;-6.288;2023-06-26T11:31:36;5.60;;;1.90;;
74749;SDS011;63269;53.330;-6.288;2023-06-26T11:34:04;7.90;;;1.98;;
74749;SDS011;63269;53.330;-6.288;2023-06-26T11:36:39;7.68;;;2.10;;
74749;SDS011;63269;53.330;-6.288;2023-06-26T11:39:07;6.45;;;1.67;;
74749;SDS011;63269;53.330;-6.288;2023-06-26T11:41:36;6.32;;;2.20;;
74749;SDS011;63269;53.330;-6.288;2023-06-26T11:44:03;4.68;;;1.85;;
74749;SDS011;63269;53.330;-6.288;2023-06-26T11:46:30;6.95;;;1.83;;
74749;SDS011;63269;53.330;-6.288;2023-06-26T11:48:55;3.78;;;1.80;;
74749;SDS011;63269;53.330;-6.288;2023-06-26T11:51:21;7.07;;;2.30;;
74749;SDS011;63269;53.330;-6.288;2023-06-26T11:53:47;5.25;;;1.70;;
74749;SDS011;63269;53.330;-6.288;2023-06-26T11:56:13;5.93;;;1.73;;
74749;SDS011;63269;53.330;-6.288;2023-06-26T12:01:21;5.78;;;2.05;;
74749;SDS011;63269;53.330;-6.288;2023-06-26T12:03:48;5.03;;;2.10;;
74749;SDS011;63269;53.330;-6.288;2023-06-26T12:06:14;6.20;;;2.20;;
74749;SDS011;63269;53.330;-6.288;2023-06-26T12:08:40;4.18;;;1.70;;
74749;SDS011;63269;53.330;-6.288;2023-06-26T12:11:06;3.17;;;1.42;;
74749;SDS011;63269;53.330;-6.288;2023-06-26T12:13:31;5.68;;;1.95;;
74749;SDS011;63269;53.330;-6.288;2023-06-26T12:15:57;6.75;;;1.60;;
74749;SDS011;63269;53.330;-6.288;2023-06-26T12:18:22;4.25;;;1.67;;
74749;SDS011;63269;53.330;-6.288;2023-06-26T12:20:50;5.55;;;1.95;;
74749;SDS011;63269;53.330;-6.288;2023-06-26T12:23:16;6.90;;;2.60;;
74749;SDS011;63269;53.330;-6.288;2023-06-26T12:25:42;6.47;;;1.58;;
74749;SDS011;63269;53.330;-6.288;2023-06-26T12:28:17;4.20;;;1.40;;
74749;SDS011;63269;53.330;-6.288;2023-06-26T12:30:47;6.90;;;2.03;;
74749;SDS011;63269;53.330;-6.288;2023-06-26T12:33:14;4.25;;;1.88;;
74749;SDS011;63269;53.330;-6.288;2023-06-26T12:35:40;3.45;;;1.15;;
74749;SDS011;63269;53.330;-6.288;2023-06-26T12:38:07;4.97;;;1.80;;
74749;SDS011;63269;53.330;-6.288;2023-06-26T12:40:35;3.58;;;1.40;;
74749;SDS011;63269;53.330;-6.288;2023-06-26T12:43:11;5.38;;;1.90;;
74749;SDS011;63269;53.330;-6.288;2023-06-26T12:45:37;4.57;;;1.60;;
74749;SDS011;63269;53.330;-6.288;2023-06-26T12:48:07;3.33;;;1.65;;
74749;SDS011;63269;53.330;-6.288;2023-06-26T12:50:44;4.15;;;1.30;;
74749;SDS011;63269;53.330;-6.288;2023-06-26T12:53:10;4.55;;;1.55;;
74749;SDS011;63269;53.330;-6.288;2023-06-26T12:55:36;3.72;;;1.50;;
74749;SDS011;63269;53.330;-6.288;2023-06-26T12:58:01;4.55;;;1.40;;
74749;SDS011;63269;53.330;-6.288;2023-06-26T13:00:27;6.25;;;1.65;;
74749;SDS011;63269;53.330;-6.288;2023-06-26T13:02:52;4.13;;;1.35;;
74749;SDS011;63269;53.330;-6.288;2023-06-26T13:05:18;4.07;;;1.35;;
74749;SDS011;63269;53.330;-6.288;2023-06-26T13:07:43;3.15;;;1.50;;
74749;SDS011;63269;53.330;-6.288;2023-06-26T13:10:09;3.72;;;2.13;;
74749;SDS011;63269;53.330;-6.288;2023-06-26T13:12:34;3.70;;;1.40;;
74749;SDS011;63269;53.330;-6.288;2023-06-26T13:15:00;2.00;;;1.08;;
74749;SDS011;63269;53.330;-6.288;2023-06-26T13:17:25;7.20;;;1.73;;
74749;SDS011;63269;53.330;-6.288;2023-06-26T13:19:51;5.32;;;1.63;;
74749;SDS011;63269;53.330;-6.288;2023-06-26T13:22:16;3.88;;;1.20;;
74749;SDS011;63269;53.330;-6.288;2023-06-26T13:24:42;5.28;;;1.38;;
74749;SDS011;63269;53.330;-6.288;2023-06-26T13:27:07;5.07;;;1.38;;
74749;SDS011;63269;53.330;-6.288;2023-06-26T13:29:32;5.95;;;1.40;;
74749;SDS011;63269;53.330;-6.288;2023-06-26T13:31:58;6.35;;;1.52;;
74749;SDS011;63269;53.330;-6.288;2023-06-26T13:34:24;4.63;;;1.35;;
74749;SDS011;63269;53.330;-6.288;2023-06-26T13:36:52;3.47;;;1.67;;
74749;SDS011;63269;53.330;-6.288;2023-06-26T13:39:18;6.65;;;1.40;;
74749;SDS011;63269;53.330;-6.288;2023-06-26T13:41:44;5.88;;;1.58;;
74749;SDS011;63269;53.330;-6.288;2023-06-26T13:44:09;6.22;;;1.50;;
74749;SDS011;63269;53.330;-6.288;2023-06-26T13:46:35;5.43;;;1.80;;
74749;SDS011;63269;53.330;-6.288;2023-06-26T13:49:00;5.50;;;1.80;;
74749;SDS011;63269;53.330;-6.288;2023-06-26T13:51:26;4.80;;;1.42;;
74749;SDS011;63269;53.330;-6.288;2023-06-26T13:53:51;6.32;;;1.80;;
74749;SDS011;63269;53.330;-6.288;2023-06-26T13:56:17;6.68;;;1.75;;
74749;SDS011;63269;53.330;-6.288;2023-06-26T13:58:42;4.68;;;1.45;;
74749;SDS011;63269;53.330;-6.288;2023-06-26T14:01:08;4.53;;;1.48;;
74749;SDS011;63269;53.330;-6.288;2023-06-26T14:03:33;7.25;;;1.70;;
74749;SDS011;63269;53.330;-6.288;2023-06-26T14:05:59;7.30;;;2.10;;
74749;SDS011;63269;53.330;-6.288;2023-06-26T14:08:24;3.70;;;1.55;;
74749;SDS011;63269;53.330;-6.288;2023-06-26T14:10:50;3.67;;;1.45;;
74749;SDS011;63269;53.330;-6.288;2023-06-26T14:13:15;6.53;;;1.92;;
74749;SDS011;63269;53.330;-6.288;2023-06-26T14:15:41;4.78;;;1.48;;
74749;SDS011;63269;53.330;-6.288;2023-06-26T14:18:07;4.53;;;1.80;;
74749;SDS011;63269;53.330;-6.288;2023-06-26T14:20:32;3.15;;;1.10;;
74749;SDS011;63269;53.330;-6.288;2023-06-26T14:22:58;4.10;;;1.50;;
74749;SDS011;63269;53.330;-6.288;2023-06-26T14:25:24;9.45;;;1.52;;
74749;SDS011;63269;53.330;-6.288;2023-06-26T14:27:49;5.47;;;1.77;;
74749;SDS011;63269;53.330;-6.288;2023-06-26T14:30:14;6.85;;;1.70;;
74749;SDS011;63269;53.330;-6.288;2023-06-26T14:32:40;6.43;;;1.98;;
74749;SDS011;63269;53.330;-6.288;2023-06-26T14:35:06;5.03;;;1.73;;
74749;SDS011;63269;53.330;-6.288;2023-06-26T14:37:31;6.43;;;1.58;;
74749;SDS011;63269;53.330;-6.288;2023-06-26T14:39:57;5.25;;;1.75;;
74749;SDS011;63269;53.330;-6.288;2023-06-26T14:42:24;7.25;;;1.70;;
74749;SDS011;63269;53.330;-6.288;2023-06-26T14:44:50;7.80;;;2.10;;
74749;SDS011;63269;53.330;-6.288;2023-06-26T14:47:18;4.05;;;1.40;;
74749;SDS011;63269;53.330;-6.288;2023-06-26T14:49:44;4.88;;;1.58;;
74749;SDS011;63269;53.330;-6.288;2023-06-26T14:52:09;5.40;;;1.35;;
74749;SDS011;63269;53.330;-6.288;2023-06-26T14:54:35;7.10;;;2.25;;
74749;SDS011;63269;53.330;-6.288;2023-06-26T14:57:04;3.35;;;1.65;;